Time;durP1;ratioP1;P1;durP2;ratioP2;P2;SDS_P1;SDS_P2;PMS_P1;PMS_P2;Temp;Humidity;BMP_temperature;BMP_pressure;BME280_temperature;BME280_humidity;BME280_pressure;Samples;Min_cycle;Max_cycle;Signal;HPM_P1;HPM_P2
2022/11/10 00:00:01;;;;;;;8.77;4.03;;;12.60;99.90;;;;;;5059870;28;20032;-83
2022/11/10 00:02:27;;;;;;;5.72;2.90;;;12.60;99.90;;;;;;5060418;28;20029;-79
2022/11/10 00:04:52;;;;;;;5.63;2.80;;;12.60;99.90;;;;;;5066823;28;20024;-81
2022/11/10 00:07:18;;;;;;;5.78;2.30;;;12.60;99.90;;;;;;5053900;28;20024;-78
2022/11/10 00:09:43;;;;;;;7.18;2.47;;;12.60;99.90;;;;;;5066051;28;20452;-78
2022/11/10 00:12:09;;;;;;;4.50;2.20;;;12.60;99.90;;;;;;5058777;28;20024;-79
2022/11/10 00:17:18;;;;;;;5.40;2.20;;;12.60;99.90;;;;;;5068608;28;20081;-82
2022/11/10 00:19:44;;;;;;;4.68;2.35;;;12.50;99.90;;;;;;5056235;28;20029;-81
2022/11/10 00:22:09;;;;;;;5.97;2.33;;;12.50;99.90;;;;;;5062690;28;20025;-76
2022/11/10 00:24:35;;;;;;;4.80;2.42;;;12.50;99.90;;;;;;5063624;28;20101;-77
2022/11/10 00:27:01;;;;;;;7.28;1.92;;;12.40;99.90;;;;;;5054579;28;20108;-77
2022/11/10 00:29:26;;;;;;;6.95;2.45;;;12.40;99.90;;;;;;5067695;28;20029;-77
2022/11/10 00:31:52;;;;;;;5.30;2.47;;;12.40;99.90;;;;;;5057145;28;20037;-76
2022/11/10 00:34:18;;;;;;;7.68;2.20;;;12.40;99.90;;;;;;5060499;28;20044;-77
2022/11/10 00:36:43;;;;;;;4.80;2.00;;;12.40;99.90;;;;;;5063260;28;20047;-79
2022/11/10 00:39:10;;;;;;;8.40;2.17;;;12.50;99.90;;;;;;5054258;28;20103;-79
2022/11/10 00:41:35;;;;;;;6.70;2.05;;;12.40;99.90;;;;;;5071810;28;20028;-78
2022/11/10 00:44:01;;;;;;;9.27;1.92;;;12.30;99.90;;;;;;5063747;28;20017;-83
2022/11/10 00:46:27;;;;;;;6.25;2.10;;;12.30;99.90;;;;;;5062173;28;20029;-82
2022/11/10 00:48:52;;;;;;;8.75;2.17;;;12.30;99.90;;;;;;5056030;28;20370;-78
2022/11/10 00:51:26;;;;;;;3.38;1.55;;;12.30;99.90;;;;;;5067327;28;20060;-78
2022/11/10 00:53:53;;;;;;;3.40;1.50;;;12.30;99.90;;;;;;5056719;28;20482;-78
2022/11/10 00:56:20;;;;;;;6.28;1.90;;;12.30;99.90;;;;;;5061188;28;20025;-79
2022/11/10 00:58:45;;;;;;;5.82;2.03;;;12.30;99.90;;;;;;5066045;28;20024;-79
2022/11/10 01:01:12;;;;;;;8.32;1.95;;;12.30;99.90;;;;;;5059143;28;20112;-79
2022/11/10 01:03:37;;;;;;;6.07;2.38;;;12.20;99.90;;;;;;5070007;28;20436;-79
2022/11/10 01:06:05;;;;;;;7.40;2.47;;;12.20;99.90;;;;;;5062132;28;20119;-78
2022/11/10 01:08:30;;;;;;;6.97;2.13;;;12.10;99.90;;;;;;5063055;28;20075;-82
2022/11/10 01:11:07;;;;;;;6.65;1.73;;;12.10;99.90;;;;;;5070350;28;20036;-79
2022/11/10 01:13:34;;;;;;;7.13;2.00;;;12.10;99.90;;;;;;5041943;28;20043;-78
2022/11/10 01:16:09;;;;;;;4.40;2.03;;;12.10;99.90;;;;;;5067534;28;20028;-77
2022/11/10 01:18:35;;;;;;;6.53;2.33;;;12.00;99.90;;;;;;5059918;28;20441;-76
2022/11/10 01:21:01;;;;;;;3.08;1.70;;;12.00;99.90;;;;;;5071440;28;20033;-77
2022/11/10 01:23:28;;;;;;;5.50;1.67;;;12.00;99.90;;;;;;5058845;28;20081;-79
2022/11/10 01:26:03;;;;;;;7.43;1.63;;;12.00;99.90;;;;;;5069755;28;20035;-81
2022/11/10 01:28:29;;;;;;;5.10;1.80;;;12.00;99.90;;;;;;5066459;28;20032;-82
2022/11/10 01:31:03;;;;;;;4.03;1.98;;;11.90;99.90;;;;;;5059994;28;20085;-78
2022/11/10 01:33:29;;;;;;;8.60;2.20;;;11.90;99.90;;;;;;5069924;28;20029;-80
2022/11/10 01:35:55;;;;;;;6.75;1.77;;;11.90;99.90;;;;;;5060993;28;20043;-79
2022/11/10 01:38:21;;;;;;;5.68;2.10;;;11.80;99.90;;;;;;5064773;28;20447;-79
2022/11/10 01:40:47;;;;;;;8.23;2.22;;;11.80;99.90;;;;;;5068930;28;20032;-79
2022/11/10 01:43:13;;;;;;;5.85;1.95;;;11.80;99.90;;;;;;5057891;28;20389;-79
2022/11/10 01:45:51;;;;;;;8.32;1.90;;;11.80;99.90;;;;;;5069115;28;20152;-79
2022/11/10 01:48:25;;;;;;;8.90;2.10;;;11.70;99.90;;;;;;5061568;28;20070;-79
2022/11/10 01:50:51;;;;;;;5.57;2.13;;;11.80;99.90;;;;;;5069508;28;20043;-79
2022/11/10 01:53:26;;;;;;;6.57;1.90;;;11.70;99.90;;;;;;5056387;28;20393;-77
2022/11/10 01:55:53;;;;;;;6.25;1.85;;;11.70;99.90;;;;;;5066928;28;20025;-80
2022/11/10 01:58:25;;;;;;;6.40;2.10;;;11.70;99.90;;;;;;5063355;28;20020;-79
2022/11/10 02:00:51;;;;;;;6.65;2.22;;;11.70;99.90;;;;;;5058680;28;20052;-80
2022/11/10 02:03:30;;;;;;;9.55;1.80;;;11.60;99.90;;;;;;5071421;28;20063;-78
2022/11/10 02:05:56;;;;;;;5.95;2.30;;;11.60;99.90;;;;;;5054856;28;20021;-78
2022/11/10 02:08:24;;;;;;;7.18;1.92;;;11.60;99.90;;;;;;5064180;28;20028;-79
2022/11/10 02:10:49;;;;;;;10.50;2.08;;;11.60;99.90;;;;;;5072817;28;20062;-78
2022/11/10 02:13:15;;;;;;;6.75;2.28;;;11.60;99.90;;;;;;5073781;28;20064;-79
2022/11/10 02:15:41;;;;;;;5.68;2.20;;;11.60;99.90;;;;;;5072678;28;20035;-78
2022/11/10 02:18:07;;;;;;;5.03;1.75;;;11.60;99.90;;;;;;5063818;28;20023;-78
2022/11/10 02:20:33;;;;;;;5.13;2.10;;;11.50;99.90;;;;;;5052312;28;20123;-79
2022/11/10 02:22:58;;;;;;;7.30;2.28;;;11.50;99.90;;;;;;5069947;28;20051;-79
2022/11/10 02:25:31;;;;;;;9.75;2.50;;;11.40;99.90;;;;;;5055806;28;20052;-79
2022/11/10 02:27:56;;;;;;;5.85;2.13;;;11.40;99.90;;;;;;5073183;28;20359;-80
2022/11/10 02:30:22;;;;;;;7.28;1.80;;;11.40;99.90;;;;;;5062254;28;20067;-78
2022/11/10 02:32:47;;;;;;;7.45;1.90;;;11.30;99.90;;;;;;5067333;28;20053;-79
2022/11/10 02:35:13;;;;;;;4.80;2.20;;;11.30;99.90;;;;;;5056899;28;20021;-79
2022/11/10 02:37:42;;;;;;;5.88;1.90;;;11.30;99.90;;;;;;5067516;28;20078;-79
2022/11/10 02:40:08;;;;;;;5.82;1.92;;;11.30;99.90;;;;;;5062363;28;20104;-79
2022/11/10 02:42:33;;;;;;;8.05;1.95;;;11.20;99.90;;;;;;5062000;28;20032;-79
2022/11/10 02:44:59;;;;;;;4.88;1.83;;;11.20;99.90;;;;;;5069974;28;20024;-79
2022/11/10 02:47:24;;;;;;;4.32;2.00;;;11.20;99.90;;;;;;5055606;28;20033;-79
2022/11/10 02:49:50;;;;;;;10.13;2.00;;;11.20;99.90;;;;;;5058982;28;20021;-79
2022/11/10 02:52:16;;;;;;;5.20;2.00;;;11.10;99.90;;;;;;5062380;28;20039;-79
2022/11/10 02:54:41;;;;;;;4.53;1.52;;;11.10;99.90;;;;;;5059935;28;20462;-79
2022/11/10 02:57:07;;;;;;;4.00;2.10;;;11.20;99.90;;;;;;5069833;28;20031;-79
2022/11/10 02:59:32;;;;;;;7.63;2.10;;;11.10;99.90;;;;;;5056761;28;20028;-79
2022/11/10 03:01:58;;;;;;;7.43;1.80;;;11.10;99.90;;;;;;5067092;28;20128;-78
2022/11/10 03:04:24;;;;;;;5.93;2.40;;;11.10;99.90;;;;;;5062968;28;20028;-79
2022/11/10 03:06:49;;;;;;;6.35;1.67;;;11.10;99.90;;;;;;5058050;28;20029;-79
2022/11/10 03:09:15;;;;;;;10.18;2.10;;;11.00;99.90;;;;;;5071202;28;20461;-79
2022/11/10 03:11:41;;;;;;;5.18;1.98;;;11.00;99.90;;;;;;5058627;28;20042;-79
2022/11/10 03:14:06;;;;;;;7.22;1.98;;;11.00;99.90;;;;;;5064595;28;20025;-78
2022/11/10 03:16:32;;;;;;;6.38;2.00;;;11.00;99.90;;;;;;5051304;28;20140;-78
2022/11/10 03:18:58;;;;;;;6.60;1.85;;;10.90;99.90;;;;;;5058545;28;20029;-79
2022/11/10 03:21:23;;;;;;;4.10;1.88;;;10.90;99.90;;;;;;5069728;28;20591;-78
2022/11/10 03:23:49;;;;;;;8.48;2.25;;;10.90;99.90;;;;;;5057748;28;20020;-78
2022/11/10 03:26:14;;;;;;;3.03;1.90;;;10.90;99.90;;;;;;5062643;28;20051;-77
2022/11/10 03:28:40;;;;;;;6.85;2.00;;;10.90;99.90;;;;;;5064388;28;20020;-78
2022/11/10 03:31:06;;;;;;;6.07;1.95;;;10.90;99.90;;;;;;5055023;28;20040;-77
2022/11/10 03:33:31;;;;;;;6.63;2.08;;;10.90;99.90;;;;;;5067209;28;20025;-78
2022/11/10 03:35:57;;;;;;;5.53;2.10;;;10.80;99.90;;;;;;5059618;28;20401;-79
2022/11/10 03:38:22;;;;;;;7.30;1.95;;;10.80;99.90;;;;;;5060720;28;20077;-87
2022/11/10 03:40:51;;;;;;;4.90;2.10;;;10.80;99.90;;;;;;5067939;28;20466;-85
2022/11/10 03:43:16;;;;;;;5.22;1.80;;;10.80;99.90;;;;;;5074723;28;20036;-81
2022/11/10 03:45:45;;;;;;;5.00;1.92;;;10.80;99.90;;;;;;5050799;28;20024;-82
2022/11/10 03:48:11;;;;;;;5.38;1.90;;;10.70;99.90;;;;;;5073274;28;20420;-81
2022/11/10 03:50:36;;;;;;;3.75;1.90;;;10.70;99.90;;;;;;5072402;28;20032;-82
2022/11/10 03:53:02;;;;;;;6.60;1.67;;;10.70;99.90;;;;;;5073186;28;20046;-81
2022/11/10 03:55:27;;;;;;;6.57;1.90;;;10.70;99.90;;;;;;5072541;28;20028;-80
2022/11/10 03:57:53;;;;;;;6.13;2.05;;;10.70;99.90;;;;;;5072816;28;20031;-80
2022/11/10 04:00:19;;;;;;;5.85;2.00;;;10.70;99.90;;;;;;5073757;28;20493;-80
2022/11/10 04:02:44;;;;;;;4.32;1.60;;;10.60;99.90;;;;;;5073377;28;20378;-80
2022/11/10 04:10:45;;;;;;;5.82;2.10;;;10.60;99.90;;;;;;5073024;28;20051;-80
2022/11/10 04:15:56;;;;;;;5.20;1.92;;;10.60;99.90;;;;;;5073664;28;20120;-80
2022/11/10 04:18:24;;;;;;;3.88;2.00;;;10.60;99.90;;;;;;5073626;28;20052;-80
2022/11/10 04:20:56;;;;;;;5.97;2.10;;;10.60;99.90;;;;;;5071976;28;20039;-80
2022/11/10 04:23:25;;;;;;;;;;;10.50;99.90;;;;;;5073935;28;20024;-80
2022/11/10 04:28:48;;;;;;;5.10;2.10;;;10.50;99.90;;;;;;5073010;28;20492;-80
2022/11/10 04:31:15;;;;;;;4.35;2.00;;;10.50;99.90;;;;;;5072317;28;20060;-80
2022/11/10 04:33:42;;;;;;;8.02;2.00;;;10.40;99.90;;;;;;5072526;28;20032;-80
2022/11/10 04:36:09;;;;;;;6.60;2.15;;;10.40;99.90;;;;;;5072292;28;20025;-80
2022/11/10 04:38:35;;;;;;;7.75;2.78;;;10.40;99.90;;;;;;5073157;28;20466;-80
2022/11/10 04:41:01;;;;;;;7.53;2.47;;;10.40;99.90;;;;;;5072337;28;20393;-80
2022/11/10 04:43:27;;;;;;;6.72;2.40;;;10.40;99.90;;;;;;5073351;28;20453;-80
2022/11/10 04:45:53;;;;;;;4.78;1.90;;;10.30;99.90;;;;;;5071806;28;20036;-81
2022/11/10 04:48:19;;;;;;;6.60;2.15;;;10.30;99.90;;;;;;5073307;28;20028;-81
2022/11/10 04:50:45;;;;;;;5.85;2.25;;;10.30;99.90;;;;;;5071759;28;20048;-81
2022/11/10 04:53:10;;;;;;;5.95;2.13;;;10.30;99.90;;;;;;5072378;28;20028;-82
2022/11/10 04:55:41;;;;;;;4.53;2.10;;;10.30;99.90;;;;;;5073069;28;20423;-82
2022/11/10 04:58:06;;;;;;;8.85;2.53;;;10.30;99.90;;;;;;5072582;28;20063;-81
2022/11/10 05:00:32;;;;;;;6.40;2.35;;;10.30;99.90;;;;;;5073098;28;20032;-81
2022/11/10 05:03:04;;;;;;;7.82;2.13;;;10.30;99.90;;;;;;5073615;28;20021;-80
2022/11/10 05:05:29;;;;;;;6.72;2.75;;;10.30;99.90;;;;;;5072001;28;20028;-80
2022/11/10 05:07:55;;;;;;;8.65;2.55;;;10.20;99.90;;;;;;5072141;28;20036;-80
2022/11/10 05:10:21;;;;;;;12.48;2.53;;;10.20;99.90;;;;;;5071960;28;20049;-80
2022/11/10 05:12:47;;;;;;;3.65;2.17;;;10.20;99.90;;;;;;5072808;28;20043;-78
2022/11/10 05:15:12;;;;;;;6.13;2.13;;;10.20;99.90;;;;;;5072529;28;20067;-78
2022/11/10 05:17:38;;;;;;;6.85;2.30;;;10.20;99.90;;;;;;5072598;28;20462;-78
2022/11/10 05:20:04;;;;;;;12.55;2.67;;;10.20;99.90;;;;;;5071712;28;20032;-79
2022/11/10 05:22:30;;;;;;;8.52;2.10;;;10.20;99.90;;;;;;5071791;28;20098;-79
2022/11/10 05:24:56;;;;;;;5.60;2.20;;;10.20;99.90;;;;;;5072945;28;20109;-79
2022/11/10 05:27:21;;;;;;;6.47;2.47;;;10.20;99.90;;;;;;5073356;28;20103;-81
2022/11/10 05:29:47;;;;;;;7.10;2.20;;;10.20;99.90;;;;;;5070940;28;20067;-80
2022/11/10 05:32:13;;;;;;;8.10;2.25;;;10.10;99.90;;;;;;5073038;28;20518;-80
2022/11/10 05:34:38;;;;;;;10.05;2.28;;;10.20;99.90;;;;;;5072413;28;20028;-79
2022/11/10 05:37:04;;;;;;;8.68;2.92;;;10.20;99.90;;;;;;5072968;28;20458;-80
2022/11/10 05:39:29;;;;;;;7.15;2.75;;;10.10;99.90;;;;;;5072976;28;20032;-80
2022/11/10 05:41:55;;;;;;;7.55;2.40;;;10.10;99.90;;;;;;5071475;28;20056;-80
2022/11/10 05:44:20;;;;;;;6.68;2.60;;;10.10;99.90;;;;;;5071887;28;20025;-80
2022/11/10 05:46:47;;;;;;;12.13;2.60;;;10.10;99.90;;;;;;5073733;28;20016;-79
2022/11/10 05:49:12;;;;;;;7.43;2.80;;;10.10;99.90;;;;;;5075419;28;20426;-79
2022/11/10 05:51:38;;;;;;;9.80;2.85;;;10.10;99.90;;;;;;5074402;28;20041;-79
2022/11/10 05:54:04;;;;;;;8.98;3.05;;;10.10;99.90;;;;;;5076272;28;20104;-81
2022/11/10 05:56:29;;;;;;;6.82;2.95;;;10.10;99.90;;;;;;5076167;28;20029;-81
2022/11/10 05:58:55;;;;;;;9.68;2.83;;;10.20;99.90;;;;;;5074386;28;20154;-81
2022/11/10 06:01:20;;;;;;;8.68;2.72;;;10.10;99.90;;;;;;5074511;28;20470;-81
2022/11/10 06:03:46;;;;;;;10.57;2.97;;;10.20;99.90;;;;;;5074129;28;20064;-81
2022/11/10 06:06:12;;;;;;;6.10;3.05;;;10.20;99.90;;;;;;5076260;28;20029;-81
2022/11/10 06:08:37;;;;;;;5.43;3.17;;;10.20;99.90;;;;;;5074102;28;20052;-79
2022/11/10 06:11:03;;;;;;;6.55;2.50;;;10.20;99.90;;;;;;5075034;28;20043;-81
2022/11/10 06:13:29;;;;;;;9.48;3.47;;;10.20;99.90;;;;;;5074556;28;20470;-81
2022/11/10 06:15:54;;;;;;;7.60;2.70;;;10.20;99.90;;;;;;5075273;28;20028;-81
2022/11/10 06:18:20;;;;;;;8.35;3.13;;;10.20;99.90;;;;;;5075114;28;20016;-81
2022/11/10 06:20:46;;;;;;;7.07;2.92;;;10.10;99.90;;;;;;5075391;28;20040;-82
2022/11/10 06:23:13;;;;;;;8.73;2.72;;;10.10;99.90;;;;;;5074913;28;20024;-82
2022/11/10 06:25:39;;;;;;;11.93;2.70;;;10.10;99.90;;;;;;5075424;28;20051;-80
2022/11/10 06:28:06;;;;;;;6.90;2.80;;;10.10;99.90;;;;;;5075779;28;20545;-81
2022/11/10 06:30:34;;;;;;;7.28;2.70;;;10.10;99.90;;;;;;5075745;28;20029;-81
2022/11/10 06:33:00;;;;;;;7.55;2.67;;;10.10;99.90;;;;;;5073852;28;20027;-81
2022/11/10 06:35:26;;;;;;;7.47;2.90;;;10.10;99.90;;;;;;5075455;28;20020;-80
2022/11/10 06:38:06;;;;;;;8.60;2.75;;;10.10;99.90;;;;;;5073899;28;20115;-80
2022/11/10 06:40:32;;;;;;;5.10;2.40;;;10.10;99.90;;;;;;5074326;28;20035;-81
2022/11/10 06:42:58;;;;;;;9.68;2.60;;;10.10;99.90;;;;;;5073671;28;20109;-81
2022/11/10 06:45:27;;;;;;;13.38;3.20;;;10.10;99.90;;;;;;5073967;28;20021;-81
2022/11/10 06:48:08;;;;;;;4.40;2.47;;;10.10;99.90;;;;;;5074994;28;20020;-81
2022/11/10 06:50:34;;;;;;;9.40;3.03;;;10.20;99.90;;;;;;5075371;28;20048;-81
2022/11/10 06:53:00;;;;;;;9.00;3.20;;;10.20;99.90;;;;;;5070973;28;20104;-82
2022/11/10 06:55:26;;;;;;;8.55;2.72;;;10.20;99.90;;;;;;5067318;28;20021;-80
2022/11/10 06:57:53;;;;;;;8.18;2.80;;;10.20;99.90;;;;;;5051962;28;20025;-80
2022/11/10 07:00:19;;;;;;;13.38;4.20;;;10.20;99.90;;;;;;5053978;28;20029;-81
2022/11/10 07:02:44;;;;;;;7.13;3.67;;;10.20;99.90;;;;;;5053437;28;20021;-80
2022/11/10 07:05:10;;;;;;;8.70;3.20;;;10.10;99.90;;;;;;5053418;28;20097;-81
2022/11/10 07:07:36;;;;;;;12.15;3.78;;;10.10;99.90;;;;;;5056401;28;20048;-81
2022/11/10 07:10:01;;;;;;;9.43;4.03;;;10.10;99.90;;;;;;5051715;28;20060;-80
2022/11/10 07:12:27;;;;;;;7.55;4.28;;;10.10;99.90;;;;;;5053817;28;20343;-81
2022/11/10 07:14:53;;;;;;;10.00;3.97;;;10.00;99.90;;;;;;5052493;28;20432;-81
2022/11/10 07:17:19;;;;;;;8.60;3.55;;;10.00;99.90;;;;;;5054371;28;20040;-81
2022/11/10 07:19:44;;;;;;;17.20;3.63;;;10.00;99.90;;;;;;5051851;28;20287;-81
2022/11/10 07:22:10;;;;;;;7.03;3.22;;;10.10;99.90;;;;;;5053067;28;20033;-81
2022/11/10 07:24:35;;;;;;;9.82;3.40;;;10.10;99.90;;;;;;5052842;28;20029;-81
2022/11/10 07:27:01;;;;;;;7.75;3.60;;;10.20;99.90;;;;;;5052385;28;20031;-81
2022/11/10 07:29:27;;;;;;;7.90;3.40;;;10.10;99.90;;;;;;5053776;28;20486;-81
2022/11/10 07:31:52;;;;;;;8.80;4.03;;;10.10;99.90;;;;;;5052378;28;20033;-81
2022/11/10 07:34:18;;;;;;;8.98;3.40;;;10.10;99.90;;;;;;5054120;28;20033;-82
2022/11/10 07:36:44;;;;;;;9.95;3.85;;;10.10;99.90;;;;;;5054177;28;20017;-82
2022/11/10 07:39:12;;;;;;;9.80;4.18;;;10.10;99.90;;;;;;5054108;28;20028;-82
2022/11/10 07:41:38;;;;;;;10.02;3.55;;;10.20;99.90;;;;;;5053106;28;20028;-78
2022/11/10 07:44:04;;;;;;;11.60;4.00;;;10.10;99.90;;;;;;5054319;28;20032;-81
2022/11/10 07:46:29;;;;;;;10.93;3.95;;;10.20;99.90;;;;;;5053530;28;20025;-82
2022/11/10 07:48:55;;;;;;;9.20;3.60;;;10.20;99.90;;;;;;5053761;28;20430;-81
2022/11/10 07:51:21;;;;;;;11.93;4.03;;;10.20;99.90;;;;;;5053802;28;20032;-82
2022/11/10 07:53:46;;;;;;;9.80;3.85;;;10.30;99.90;;;;;;5052802;28;20049;-82
2022/11/10 07:56:13;;;;;;;10.68;3.90;;;10.30;99.90;;;;;;5053202;28;20017;-82
2022/11/10 07:58:38;;;;;;;7.93;3.40;;;10.30;99.90;;;;;;5053083;28;20032;-81
2022/11/10 08:01:04;;;;;;;11.27;4.53;;;10.30;99.90;;;;;;5054115;28;20442;-81
2022/11/10 08:03:30;;;;;;;8.15;3.90;;;10.30;99.90;;;;;;5052913;28;20017;-81
2022/11/10 08:05:56;;;;;;;6.90;3.70;;;10.30;99.90;;;;;;5052594;28;20025;-80
2022/11/10 08:08:21;;;;;;;8.15;3.30;;;10.40;99.90;;;;;;5051243;28;20026;-80
2022/11/10 08:10:47;;;;;;;11.82;3.88;;;10.40;99.90;;;;;;5053295;28;20458;-80
2022/11/10 08:13:13;;;;;;;10.05;4.22;;;10.50;99.90;;;;;;5052639;28;20068;-80
2022/11/10 08:15:39;;;;;;;12.90;4.00;;;10.50;99.90;;;;;;5052773;28;20021;-81
2022/11/10 08:18:09;;;;;;;8.95;4.30;;;10.50;99.90;;;;;;5052186;28;20029;-79
2022/11/10 08:20:35;;;;;;;9.88;3.90;;;10.60;99.90;;;;;;5053869;28;20065;-81
2022/11/10 08:23:03;;;;;;;7.05;3.28;;;10.60;99.90;;;;;;5053165;28;20082;-81
2022/11/10 08:25:31;;;;;;;7.43;3.67;;;10.60;99.90;;;;;;5052794;28;20029;-81
2022/11/10 08:28:17;;;;;;;7.78;3.35;;;10.60;99.90;;;;;;5053171;28;20036;-80
2022/11/10 08:30:44;;;;;;;6.20;3.42;;;10.70;99.90;;;;;;5053170;28;20128;-80
2022/11/10 08:33:12;;;;;;;5.32;3.45;;;10.70;99.90;;;;;;5053702;28;20033;-80
2022/11/10 08:35:41;;;;;;;9.65;3.90;;;10.80;99.90;;;;;;5053486;28;20458;-82
2022/11/10 08:38:21;;;;;;;12.23;4.65;;;10.80;99.90;;;;;;5053501;28;20100;-82
2022/11/10 08:40:47;;;;;;;8.73;3.83;;;10.90;99.90;;;;;;5052142;28;20075;-81
2022/11/10 08:43:14;;;;;;;10.02;3.92;;;11.00;99.90;;;;;;5052544;28;20079;-81
2022/11/10 08:45:41;;;;;;;8.43;3.20;;;11.00;99.90;;;;;;5052154;28;20097;-81
2022/11/10 08:48:13;;;;;;;11.80;3.60;;;11.00;99.90;;;;;;5051723;28;20075;-80
2022/11/10 08:50:39;;;;;;;8.52;3.67;;;11.00;99.90;;;;;;5052258;28;20041;-82
2022/11/10 08:53:13;;;;;;;8.40;3.45;;;11.20;99.90;;;;;;5052970;28;20420;-81
2022/11/10 08:55:39;;;;;;;9.43;3.92;;;11.20;99.90;;;;;;5052406;28;20064;-81
2022/11/10 08:58:07;;;;;;;8.13;3.28;;;11.30;99.90;;;;;;5052939;28;20112;-81
2022/11/10 09:00:33;;;;;;;7.95;3.50;;;11.30;99.90;;;;;;5052427;28;20458;-81
2022/11/10 09:03:09;;;;;;;9.52;3.10;;;11.30;99.90;;;;;;5051871;28;20031;-80
2022/11/10 09:05:35;;;;;;;7.38;3.20;;;11.30;99.90;;;;;;5052400;28;20025;-80
2022/11/10 09:08:02;;;;;;;4.75;3.17;;;11.30;99.90;;;;;;5052861;28;20059;-82
2022/11/10 09:10:28;;;;;;;9.05;2.95;;;11.40;99.90;;;;;;5053541;28;20087;-80
2022/11/10 09:12:58;;;;;;;10.57;3.70;;;11.40;99.90;;;;;;5051817;28;20080;-82
2022/11/10 09:15:23;;;;;;;7.78;3.58;;;11.40;99.90;;;;;;5051894;28;20029;-82
2022/11/10 09:17:49;;;;;;;8.25;3.67;;;11.50;99.90;;;;;;5051748;28;20032;-81
2022/11/10 09:20:15;;;;;;;9.18;3.60;;;11.50;99.90;;;;;;5054022;28;20079;-81
2022/11/10 09:22:40;;;;;;;8.00;3.67;;;11.60;99.90;;;;;;5057148;28;20033;-81
2022/11/10 09:25:06;;;;;;;9.30;4.00;;;11.60;99.90;;;;;;5055823;28;20028;-80
2022/11/10 09:27:36;;;;;;;13.20;5.20;;;11.70;99.90;;;;;;5056758;28;20021;-81
2022/11/10 09:30:05;;;;;;;11.45;4.50;;;11.70;99.90;;;;;;5054766;28;20029;-81
2022/11/10 09:32:31;;;;;;;9.48;3.88;;;11.70;99.90;;;;;;5051855;28;20152;-81
2022/11/10 09:34:57;;;;;;;8.07;3.70;;;11.80;99.90;;;;;;5064343;28;20098;-81
2022/11/10 09:37:23;;;;;;;8.90;3.22;;;11.90;99.90;;;;;;5064148;28;20124;-81
2022/11/10 09:39:48;;;;;;;8.82;3.45;;;11.90;99.90;;;;;;5069728;28;20060;-81
2022/11/10 09:42:30;;;;;;;7.57;3.90;;;12.10;99.90;;;;;;5058109;28;20482;-81
2022/11/10 09:45:22;;;;;;;8.20;3.38;;;12.20;99.90;;;;;;5055711;28;20036;-81
2022/11/10 09:47:55;;;;;;;;;;;12.40;99.90;;;;;;5070347;28;20036;-80
2022/11/10 09:50:55;;;;;;;7.68;3.13;;;12.50;99.90;;;;;;5057939;28;19971;-81
2022/11/10 09:53:30;;;;;;;4.88;2.90;;;12.60;99.90;;;;;;5070418;28;20385;-80
2022/11/10 09:56:05;;;;;;;13.90;5.90;;;12.70;99.90;;;;;;5058777;28;20036;-82
2022/11/10 09:58:49;;;;;;;13.98;5.22;;;12.70;99.90;;;;;;5043123;28;20073;-82
2022/11/10 10:01:27;;;;;;;16.60;5.22;;;12.70;99.90;;;;;;5070257;28;20147;-82
2022/11/10 10:04:25;;;;;;;9.15;3.95;;;12.60;99.90;;;;;;5069878;28;20035;-81
2022/11/10 10:07:19;;;;;;;8.18;3.78;;;12.60;99.90;;;;;;5047420;28;20055;-81
2022/11/10 10:09:58;;;;;;;8.25;3.20;;;12.60;99.90;;;;;;5062086;28;20049;-81
2022/11/10 10:12:59;;;;;;;10.68;3.30;;;12.70;99.90;;;;;;5070853;28;20521;-82
2022/11/10 10:15:43;;;;;;;11.70;4.10;;;12.70;99.90;;;;;;5055247;28;20021;-82
2022/11/10 10:18:32;;;;;;;9.68;3.83;;;12.80;99.90;;;;;;5070454;28;20111;-81
2022/11/10 10:21:10;;;;;;;5.05;2.78;;;12.80;99.90;;;;;;5062394;28;20036;-82
2022/11/10 10:23:41;;;;;;;7.35;2.70;;;12.80;99.90;;;;;;5061547;28;20031;-83
2022/11/10 10:26:15;;;;;;;7.25;2.75;;;12.90;99.90;;;;;;5055071;28;20192;-85
2022/11/10 10:28:45;;;;;;;5.70;2.42;;;12.90;99.90;;;;;;5061734;28;20036;-79
2022/11/10 10:31:18;;;;;;;7.53;2.00;;;13.00;99.90;;;;;;5051347;28;21122;-79
2022/11/10 10:33:45;;;;;;;3.40;1.80;;;13.00;99.90;;;;;;5060698;28;20029;-80
2022/11/10 10:36:22;;;;;;;4.25;2.13;;;13.00;99.90;;;;;;5062345;28;20025;-79
2022/11/10 10:38:53;;;;;;;9.88;2.13;;;13.00;99.90;;;;;;5060744;28;20031;-79
2022/11/10 10:41:27;;;;;;;7.20;1.85;;;13.10;99.90;;;;;;5062661;28;20037;-79
2022/11/10 10:43:55;;;;;;;4.47;1.50;;;13.10;99.90;;;;;;5062127;28;20032;-79
2022/11/10 10:46:27;;;;;;;7.15;1.88;;;13.10;99.90;;;;;;5068175;28;20045;-79
2022/11/10 10:49:07;;;;;;;9.55;1.90;;;13.10;99.90;;;;;;5063675;28;20039;-80
2022/11/10 10:51:32;;;;;;;5.63;1.85;;;13.20;99.90;;;;;;5054071;28;20037;-78
2022/11/10 10:53:58;;;;;;;4.93;1.58;;;13.20;99.90;;;;;;5061098;28;20086;-78
2022/11/10 10:56:32;;;;;;;5.40;1.98;;;13.20;99.90;;;;;;5065258;28;20016;-81
2022/11/10 10:59:01;;;;;;;5.30;1.35;;;13.30;99.90;;;;;;5063912;28;20112;-80
2022/11/10 11:01:32;;;;;;;2.75;1.52;;;13.30;99.90;;;;;;5060837;28;20481;-80
2022/11/10 11:03:59;;;;;;;5.20;1.58;;;13.30;99.90;;;;;;5064265;28;20050;-80
2022/11/10 11:06:30;;;;;;;3.53;1.27;;;13.40;99.90;;;;;;5056393;28;20066;-79
2022/11/10 11:09:37;;;;;;;3.88;1.40;;;13.50;99.90;;;;;;5064809;28;20094;-79
2022/11/10 11:12:10;;;;;;;5.97;1.50;;;13.60;99.90;;;;;;5045452;28;20040;-79
2022/11/10 11:14:35;;;;;;;6.40;1.48;;;13.60;99.90;;;;;;5052134;28;20119;-78
2022/11/10 11:17:11;;;;;;;4.18;1.27;;;13.60;99.90;;;;;;5067850;28;20063;-79
2022/11/10 11:19:38;;;;;;;3.50;1.27;;;13.60;99.90;;;;;;5052698;28;20029;-80
2022/11/10 11:22:04;;;;;;;3.17;1.13;;;13.60;99.90;;;;;;5064411;28;20066;-80
2022/11/10 11:24:41;;;;;;;4.72;1.20;;;13.60;99.90;;;;;;5060946;28;20612;-80
2022/11/10 11:27:13;;;;;;;2.85;1.17;;;13.60;99.90;;;;;;5060445;28;20028;-79
2022/11/10 11:29:56;;;;;;;2.63;0.77;;;13.70;99.90;;;;;;5064387;28;20025;-79
2022/11/10 11:32:39;;;;;;;2.33;1.00;;;13.70;99.90;;;;;;5062289;28;20045;-78
2022/11/10 11:35:30;;;;;;;6.25;0.90;;;13.70;99.90;;;;;;5059386;28;20436;-78
2022/11/10 11:37:59;;;;;;;4.18;0.93;;;13.80;99.90;;;;;;5062739;28;20025;-77
2022/11/10 11:40:48;;;;;;;4.10;1.33;;;13.80;99.90;;;;;;5059925;28;20036;-77
2022/11/10 11:43:22;;;;;;;4.47;1.00;;;13.90;99.90;;;;;;5062129;28;20036;-81
2022/11/10 11:46:15;;;;;;;5.53;1.25;;;14.00;99.90;;;;;;5064570;28;20032;-82
2022/11/10 11:48:46;;;;;;;4.40;1.00;;;14.10;99.90;;;;;;5065147;28;20051;-78
2022/11/10 11:51:56;;;;;;;3.50;1.20;;;14.20;99.90;;;;;;5062142;28;20397;-79
2022/11/10 11:55:00;;;;;;;2.92;0.68;;;14.40;99.90;;;;;;5024700;28;20124;-79
2022/11/10 11:57:34;;;;;;;2.50;0.90;;;14.60;99.90;;;;;;5031031;28;20032;-78
2022/11/10 12:00:14;;;;;;;3.97;1.08;;;14.80;99.90;;;;;;5021579;28;20056;-79
2022/11/10 12:03:01;;;;;;;4.20;0.95;;;15.00;99.90;;;;;;5043372;28;20393;-79
2022/11/10 12:05:55;;;;;;;5.22;1.00;;;15.20;99.90;;;;;;5038392;28;20426;-78
2022/11/10 12:08:32;;;;;;;1.67;0.70;;;15.30;99.90;;;;;;5017985;28;20525;-79
2022/11/10 12:11:25;;;;;;;4.72;0.90;;;15.60;99.90;;;;;;5040992;28;20171;-78
2022/11/10 12:14:05;;;;;;;1.65;0.70;;;15.80;99.90;;;;;;5021574;28;20040;-78
2022/11/10 12:16:34;;;;;;;3.47;0.75;;;15.90;99.90;;;;;;5014490;28;20065;-77
2022/11/10 12:19:20;;;;;;;5.50;0.70;;;16.20;99.90;;;;;;5020369;28;20102;-76
2022/11/10 12:21:58;;;;;;;2.42;0.60;;;16.40;99.90;;;;;;5019238;28;20036;-76
2022/11/10 12:24:26;;;;;;;2.75;0.63;;;16.60;99.90;;;;;;5026888;28;20075;-75
2022/11/10 12:27:24;;;;;;;3.53;0.80;;;16.90;99.90;;;;;;5067892;28;20093;-78
2022/11/10 12:29:55;;;;;;;2.08;0.68;;;17.10;99.90;;;;;;5042685;28;20045;-76
2022/11/10 12:32:33;;;;;;;5.30;0.60;;;17.20;99.90;;;;;;5054220;28;20032;-76
2022/11/10 12:35:10;;;;;;;2.85;0.68;;;17.50;99.90;;;;;;5065771;28;20090;-77
2022/11/10 12:37:43;;;;;;;5.13;0.80;;;17.50;99.90;;;;;;5058722;28;20473;-76
2022/11/10 12:40:37;;;;;;;3.53;0.60;;;18.00;99.90;;;;;;5055948;28;20497;-74
2022/11/10 12:43:09;;;;;;;5.07;0.93;;;18.40;99.90;;;;;;5062656;28;20035;-75
2022/11/10 12:45:50;;;;;;;5.00;0.93;;;19.00;99.90;;;;;;5062704;28;20029;-76
2022/11/10 12:48:17;;;;;;;6.30;0.93;;;19.40;99.90;;;;;;5062052;28;20082;-76
2022/11/10 12:51:03;;;;;;;6.40;0.95;;;19.50;99.90;;;;;;5059005;28;20086;-76
2022/11/10 12:53:31;;;;;;;3.33;0.80;;;19.10;99.90;;;;;;5062041;28;20052;-75
2022/11/10 12:56:19;;;;;;;3.92;0.93;;;18.60;99.90;;;;;;5066063;28;20021;-75
2022/11/10 12:58:45;;;;;;;3.67;0.85;;;18.70;99.90;;;;;;5057503;28;20021;-75
2022/11/10 13:01:14;;;;;;;5.25;0.98;;;18.60;99.90;;;;;;5062512;28;20032;-75
2022/11/10 13:03:53;;;;;;;4.53;0.60;;;19.00;99.90;;;;;;5066041;28;20025;-75
2022/11/10 13:06:35;;;;;;;6.53;0.77;;;19.00;99.90;;;;;;5057581;28;20032;-75
2022/11/10 13:09:01;;;;;;;;;;;19.40;99.10;;;;;;5075287;28;20415;-78
2022/11/10 13:11:31;;;;;;;2.28;0.80;;;19.50;98.30;;;;;;5063186;28;20007;-77